ROMMA est une association bénévole à but non lucratif. Votre soutien est indispensable : ADHERER à ROMMA ou FAIRE un DON

Granges-lès-Beaumont - (26, Drôme)

Drôme des Collines (155 m)   Longitude: 04°58'E   Latitude: 45°03'N Station partenaire n°123
 

Détail journalier du     <<     >>

Température Precipitation Humidité Pression Vent Dir Rafale Dir. rafale Ensol.
Heure (°C) (mm) (%) (hPa) (km/h) (km/h) (min)
01:00 -1.608810222NNO8NNO0
02:00 -1.508810222N10NNO0
03:00 -1.608910222ENE10NNO0
04:00 -1.608910223ENE11ENE0
05:00 -1.608910216ENE11E0
06:00 -1.609010216E13E0
07:00 -1.409010216ENE16E0
08:00 -0.709010218ENE15ENE0
09:00 -0.309010218ENE16E0
10:00 0.409010214ENE11ENE0
11:00 1.509010213ENE13ENE0
12:00 2.50.48910217ENE15ENE0
13:00 3.908910208ENE15E0
14:00 5.208710209ENE21E0
15:00 8.2078101911ENE21E20
16:00 8.4074101912ENE21E50
17:00 7.9076101910E18E10
18:00 6.60.282102010ENE31NO0
19:00 6.1085102210N21E0
20:00 5.7086102210ENE19ENE0
21:00 5.2086102311NE21ENE0
22:00 3.908610238NNO15NNO0
23:00 2.508710237NO13NO0
minuit 2.608810234ONO10ONO0

Graphique du 07-02-2019

 

Serveur OMMA